sensor_id;sensor_type;location;lat;lon;timestamp;P1;durP1;ratioP1;P2;durP2;ratioP2
38557;SDS011;24333;42.626;23.308;2022-11-12T00:01:10;6.00;;;3.22;;
38557;SDS011;24333;42.626;23.308;2022-11-12T00:03:36;10.30;;;3.88;;
38557;SDS011;24333;42.626;23.308;2022-11-12T00:06:02;6.75;;;3.25;;
38557;SDS011;24333;42.626;23.308;2022-11-12T00:59:42;12.55;;;4.22;;
38557;SDS011;24333;42.626;23.308;2022-11-12T01:02:13;10.40;;;4.30;;
38557;SDS011;24333;42.626;23.308;2022-11-12T01:04:39;11.00;;;3.50;;
38557;SDS011;24333;42.626;23.308;2022-11-12T01:07:04;10.77;;;4.43;;
38557;SDS011;24333;42.626;23.308;2022-11-12T01:09:32;13.90;;;6.53;;
38557;SDS011;24333;42.626;23.308;2022-11-12T01:12:07;34.88;;;6.97;;
38557;SDS011;24333;42.626;23.308;2022-11-12T01:15:06;20.42;;;7.45;;
38557;SDS011;24333;42.626;23.308;2022-11-12T01:17:40;20.65;;;8.23;;
38557;SDS011;24333;42.626;23.308;2022-11-12T01:20:06;21.63;;;7.75;;
38557;SDS011;24333;42.626;23.308;2022-11-12T01:22:33;28.83;;;9.40;;
38557;SDS011;24333;42.626;23.308;2022-11-12T01:31:42;22.08;;;9.43;;
38557;SDS011;24333;42.626;23.308;2022-11-12T01:34:08;29.15;;;10.07;;
38557;SDS011;24333;42.626;23.308;2022-11-12T01:36:35;26.00;;;9.68;;
38557;SDS011;24333;42.626;23.308;2022-11-12T01:39:03;27.27;;;9.43;;
38557;SDS011;24333;42.626;23.308;2022-11-12T01:41:31;29.13;;;10.48;;
38557;SDS011;24333;42.626;23.308;2022-11-12T02:07:56;27.73;;;8.63;;
38557;SDS011;24333;42.626;23.308;2022-11-12T02:10:24;22.75;;;7.75;;
38557;SDS011;24333;42.626;23.308;2022-11-12T02:12:50;22.20;;;7.70;;
38557;SDS011;24333;42.626;23.308;2022-11-12T02:15:37;33.03;;;8.68;;
38557;SDS011;24333;42.626;23.308;2022-11-12T02:18:04;24.45;;;7.97;;
38557;SDS011;24333;42.626;23.308;2022-11-12T02:20:34;26.25;;;9.40;;
38557;SDS011;24333;42.626;23.308;2022-11-12T02:23:01;17.52;;;6.93;;
38557;SDS011;24333;42.626;23.308;2022-11-12T02:25:26;12.93;;;5.22;;
38557;SDS011;24333;42.626;23.308;2022-11-12T02:27:52;12.20;;;5.65;;
38557;SDS011;24333;42.626;23.308;2022-11-12T02:30:39;14.63;;;6.00;;
38557;SDS011;24333;42.626;23.308;2022-11-12T02:33:09;14.65;;;4.97;;
38557;SDS011;24333;42.626;23.308;2022-11-12T02:35:35;8.18;;;3.70;;
38557;SDS011;24333;42.626;23.308;2022-11-12T02:38:00;6.25;;;3.22;;
38557;SDS011;24333;42.626;23.308;2022-11-12T02:40:26;6.47;;;3.10;;
38557;SDS011;24333;42.626;23.308;2022-11-12T02:42:52;5.80;;;2.80;;
38557;SDS011;24333;42.626;23.308;2022-11-12T02:45:17;5.78;;;2.17;;
38557;SDS011;24333;42.626;23.308;2022-11-12T02:47:43;6.45;;;2.70;;
38557;SDS011;24333;42.626;23.308;2022-11-12T02:50:09;5.05;;;2.38;;
38557;SDS011;24333;42.626;23.308;2022-11-12T02:52:35;5.53;;;2.40;;
38557;SDS011;24333;42.626;23.308;2022-11-12T03:16:44;3.97;;;2.35;;
38557;SDS011;24333;42.626;23.308;2022-11-12T03:19:09;5.10;;;1.92;;
38557;SDS011;24333;42.626;23.308;2022-11-12T03:21:35;4.20;;;2.17;;
38557;SDS011;24333;42.626;23.308;2022-11-12T03:24:00;4.97;;;1.88;;
38557;SDS011;24333;42.626;23.308;2022-11-12T03:26:26;3.63;;;1.70;;
38557;SDS011;24333;42.626;23.308;2022-11-12T03:28:52;2.47;;;1.65;;
38557;SDS011;24333;42.626;23.308;2022-11-12T03:31:18;2.83;;;1.65;;
38557;SDS011;24333;42.626;23.308;2022-11-12T03:33:43;3.97;;;2.00;;
38557;SDS011;24333;42.626;23.308;2022-11-12T03:36:09;3.50;;;1.90;;
38557;SDS011;24333;42.626;23.308;2022-11-12T03:38:34;4.75;;;2.15;;
38557;SDS011;24333;42.626;23.308;2022-11-12T03:40:59;3.80;;;1.83;;
38557;SDS011;24333;42.626;23.308;2022-11-12T03:43:33;2.78;;;1.75;;
38557;SDS011;24333;42.626;23.308;2022-11-12T03:46:00;4.55;;;2.10;;
38557;SDS011;24333;42.626;23.308;2022-11-12T04:34:19;5.60;;;2.05;;
38557;SDS011;24333;42.626;23.308;2022-11-12T04:36:54;3.30;;;1.65;;
38557;SDS011;24333;42.626;23.308;2022-11-12T04:39:19;6.40;;;2.58;;
38557;SDS011;24333;42.626;23.308;2022-11-12T05:32:20;8.52;;;3.47;;
38557;SDS011;24333;42.626;23.308;2022-11-12T05:34:46;6.95;;;3.20;;
38557;SDS011;24333;42.626;23.308;2022-11-12T05:37:12;5.60;;;2.55;;
38557;SDS011;24333;42.626;23.308;2022-11-12T05:39:38;5.38;;;2.90;;
38557;SDS011;24333;42.626;23.308;2022-11-12T05:48:17;7.65;;;3.25;;
38557;SDS011;24333;42.626;23.308;2022-11-12T05:50:42;10.02;;;3.95;;
38557;SDS011;24333;42.626;23.308;2022-11-12T05:53:08;8.23;;;3.35;;
38557;SDS011;24333;42.626;23.308;2022-11-12T05:55:33;6.55;;;3.33;;
38557;SDS011;24333;42.626;23.308;2022-11-12T05:58:02;9.18;;;2.92;;
38557;SDS011;24333;42.626;23.308;2022-11-12T06:00:28;8.02;;;3.15;;
38557;SDS011;24333;42.626;23.308;2022-11-12T06:02:55;5.60;;;2.92;;
38557;SDS011;24333;42.626;23.308;2022-11-12T06:05:22;8.35;;;3.13;;
38557;SDS011;24333;42.626;23.308;2022-11-12T06:07:49;7.88;;;3.08;;
38557;SDS011;24333;42.626;23.308;2022-11-12T06:10:14;5.45;;;2.50;;
38557;SDS011;24333;42.626;23.308;2022-11-12T06:12:39;6.10;;;2.95;;
38557;SDS011;24333;42.626;23.308;2022-11-12T06:15:05;6.43;;;2.47;;
38557;SDS011;24333;42.626;23.308;2022-11-12T06:17:31;5.45;;;2.85;;
38557;SDS011;24333;42.626;23.308;2022-11-12T06:19:56;8.93;;;2.80;;
38557;SDS011;24333;42.626;23.308;2022-11-12T06:57:15;8.07;;;3.58;;
38557;SDS011;24333;42.626;23.308;2022-11-12T06:59:40;8.30;;;4.47;;
38557;SDS011;24333;42.626;23.308;2022-11-12T07:02:06;6.07;;;3.00;;
38557;SDS011;24333;42.626;23.308;2022-11-12T07:04:31;8.88;;;2.85;;
38557;SDS011;24333;42.626;23.308;2022-11-12T07:06:57;5.15;;;2.75;;
38557;SDS011;24333;42.626;23.308;2022-11-12T07:09:22;6.00;;;3.13;;
38557;SDS011;24333;42.626;23.308;2022-11-12T07:11:48;6.93;;;2.60;;
38557;SDS011;24333;42.626;23.308;2022-11-12T07:14:14;7.03;;;3.08;;
38557;SDS011;24333;42.626;23.308;2022-11-12T07:33:14;10.18;;;2.65;;
38557;SDS011;24333;42.626;23.308;2022-11-12T07:35:40;7.63;;;2.65;;
38557;SDS011;24333;42.626;23.308;2022-11-12T07:38:06;9.07;;;2.88;;
38557;SDS011;24333;42.626;23.308;2022-11-12T07:40:31;5.28;;;2.28;;
38557;SDS011;24333;42.626;23.308;2022-11-12T07:42:57;13.27;;;4.35;;
38557;SDS011;24333;42.626;23.308;2022-11-12T07:48:40;7.18;;;3.25;;
38557;SDS011;24333;42.626;23.308;2022-11-12T07:51:13;4.88;;;2.42;;
38557;SDS011;24333;42.626;23.308;2022-11-12T07:53:49;6.47;;;3.17;;
38557;SDS011;24333;42.626;23.308;2022-11-12T08:36:59;5.22;;;3.47;;
38557;SDS011;24333;42.626;23.308;2022-11-12T08:39:29;12.13;;;3.30;;
38557;SDS011;24333;42.626;23.308;2022-11-12T08:41:56;5.28;;;3.15;;
38557;SDS011;24333;42.626;23.308;2022-11-12T08:44:22;7.95;;;3.08;;
38557;SDS011;24333;42.626;23.308;2022-11-12T09:02:18;6.63;;;3.55;;
38557;SDS011;24333;42.626;23.308;2022-11-12T09:04:45;5.75;;;2.78;;
38557;SDS011;24333;42.626;23.308;2022-11-12T09:07:10;6.72;;;2.65;;
38557;SDS011;24333;42.626;23.308;2022-11-12T09:09:35;7.78;;;3.50;;
38557;SDS011;24333;42.626;23.308;2022-11-12T09:41:43;6.00;;;2.85;;
38557;SDS011;24333;42.626;23.308;2022-11-12T10:18:05;5.13;;;2.70;;
38557;SDS011;24333;42.626;23.308;2022-11-12T10:32:24;19.40;;;6.68;;
38557;SDS011;24333;42.626;23.308;2022-11-12T10:45:41;4.45;;;2.50;;
38557;SDS011;24333;42.626;23.308;2022-11-12T10:48:30;6.72;;;2.20;;
38557;SDS011;24333;42.626;23.308;2022-11-12T10:57:19;9.65;;;4.72;;
38557;SDS011;24333;42.626;23.308;2022-11-12T10:59:45;6.55;;;3.17;;
38557;SDS011;24333;42.626;23.308;2022-11-12T11:02:15;8.02;;;3.80;;
38557;SDS011;24333;42.626;23.308;2022-11-12T11:04:43;6.13;;;2.72;;
38557;SDS011;24333;42.626;23.308;2022-11-12T11:07:19;11.82;;;4.90;;
38557;SDS011;24333;42.626;23.308;2022-11-12T11:09:54;7.85;;;4.15;;
38557;SDS011;24333;42.626;23.308;2022-11-12T11:12:29;10.45;;;4.50;;
38557;SDS011;24333;42.626;23.308;2022-11-12T11:15:06;9.82;;;3.92;;
38557;SDS011;24333;42.626;23.308;2022-11-12T11:17:32;13.15;;;5.88;;
38557;SDS011;24333;42.626;23.308;2022-11-12T11:20:03;16.15;;;5.25;;
38557;SDS011;24333;42.626;23.308;2022-11-12T11:22:41;10.10;;;4.28;;
38557;SDS011;24333;42.626;23.308;2022-11-12T13:00:23;2.92;;;1.70;;
38557;SDS011;24333;42.626;23.308;2022-11-12T13:02:54;4.05;;;1.73;;
38557;SDS011;24333;42.626;23.308;2022-11-12T13:05:25;10.05;;;2.92;;
38557;SDS011;24333;42.626;23.308;2022-11-12T13:07:51;25.45;;;6.55;;
38557;SDS011;24333;42.626;23.308;2022-11-12T13:28:34;23.98;;;7.40;;
38557;SDS011;24333;42.626;23.308;2022-11-12T13:31:00;16.90;;;5.60;;
38557;SDS011;24333;42.626;23.308;2022-11-12T13:33:28;24.88;;;9.13;;
38557;SDS011;24333;42.626;23.308;2022-11-12T13:38:46;17.33;;;6.63;;
38557;SDS011;24333;42.626;23.308;2022-11-12T13:56:54;14.95;;;4.45;;
38557;SDS011;24333;42.626;23.308;2022-11-12T13:59:21;17.48;;;5.18;;
38557;SDS011;24333;42.626;23.308;2022-11-12T14:04:51;14.80;;;5.03;;
38557;SDS011;24333;42.626;23.308;2022-11-12T14:07:27;18.08;;;6.78;;
38557;SDS011;24333;42.626;23.308;2022-11-12T19:09:01;8.27;;;3.65;;
38557;SDS011;24333;42.626;23.308;2022-11-12T19:24:25;11.30;;;4.07;;
38557;SDS011;24333;42.626;23.308;2022-11-12T19:26:51;13.18;;;4.95;;
38557;SDS011;24333;42.626;23.308;2022-11-12T19:29:16;12.80;;;5.30;;
38557;SDS011;24333;42.626;23.308;2022-11-12T19:31:42;11.32;;;5.05;;
38557;SDS011;24333;42.626;23.308;2022-11-12T19:34:08;8.27;;;3.47;;
38557;SDS011;24333;42.626;23.308;2022-11-12T19:36:34;7.63;;;2.72;;
38557;SDS011;24333;42.626;23.308;2022-11-12T20:21:04;7.30;;;3.63;;
38557;SDS011;24333;42.626;23.308;2022-11-12T20:26:06;8.48;;;3.63;;
38557;SDS011;24333;42.626;23.308;2022-11-12T20:55:16;5.60;;;3.20;;
38557;SDS011;24333;42.626;23.308;2022-11-12T20:57:43;5.13;;;3.00;;
38557;SDS011;24333;42.626;23.308;2022-11-12T21:36:47;6.65;;;2.78;;
38557;SDS011;24333;42.626;23.308;2022-11-12T21:39:23;4.60;;;2.40;;
38557;SDS011;24333;42.626;23.308;2022-11-12T21:41:49;5.63;;;2.70;;
38557;SDS011;24333;42.626;23.308;2022-11-12T21:44:19;6.53;;;3.22;;
38557;SDS011;24333;42.626;23.308;2022-11-12T21:46:45;7.70;;;2.65;;
38557;SDS011;24333;42.626;23.308;2022-11-12T21:52:02;7.50;;;3.03;;
38557;SDS011;24333;42.626;23.308;2022-11-12T21:54:32;4.70;;;2.28;;
38557;SDS011;24333;42.626;23.308;2022-11-12T21:56:59;5.20;;;2.33;;
38557;SDS011;24333;42.626;23.308;2022-11-12T22:02:27;4.82;;;2.42;;
38557;SDS011;24333;42.626;23.308;2022-11-12T22:05:11;6.28;;;2.53;;
38557;SDS011;24333;42.626;23.308;2022-11-12T22:07:37;4.70;;;2.17;;
38557;SDS011;24333;42.626;23.308;2022-11-12T22:10:03;4.40;;;2.13;;
38557;SDS011;24333;42.626;23.308;2022-11-12T22:12:29;4.78;;;1.88;;
38557;SDS011;24333;42.626;23.308;2022-11-12T22:14:56;5.93;;;2.10;;
38557;SDS011;24333;42.626;23.308;2022-11-12T23:04:26;3.95;;;1.75;;
38557;SDS011;24333;42.626;23.308;2022-11-12T23:06:56;5.88;;;1.52;;
38557;SDS011;24333;42.626;23.308;2022-11-12T23:09:23;2.08;;;1.30;;
38557;SDS011;24333;42.626;23.308;2022-11-12T23:11:50;2.60;;;1.40;;
38557;SDS011;24333;42.626;23.308;2022-11-12T23:14:25;4.22;;;1.38;;
38557;SDS011;24333;42.626;23.308;2022-11-12T23:19:47;1.88;;;1.13;;
38557;SDS011;24333;42.626;23.308;2022-11-12T23:22:14;3.65;;;1.35;;
38557;SDS011;24333;42.626;23.308;2022-11-12T23:24:40;7.45;;;1.90;;
38557;SDS011;24333;42.626;23.308;2022-11-12T23:37:23;5.43;;;1.85;;
38557;SDS011;24333;42.626;23.308;2022-11-12T23:39:49;4.15;;;1.80;;
38557;SDS011;24333;42.626;23.308;2022-11-12T23:42:15;5.28;;;2.13;;
38557;SDS011;24333;42.626;23.308;2022-11-12T23:44:40;6.97;;;2.13;;
38557;SDS011;24333;42.626;23.308;2022-11-12T23:49:45;4.10;;;1.95;;
38557;SDS011;24333;42.626;23.308;2022-11-12T23:52:10;4.38;;;2.00;;
38557;SDS011;24333;42.626;23.308;2022-11-12T23:54:37;11.90;;;2.60;;
